createdAt,value
2019-05-06T00:02:28.205Z,8.30
2019-05-06T00:05:00.413Z,8.23
2019-05-06T00:07:34.004Z,8.10
2019-05-06T00:10:06.407Z,8.53
2019-05-06T00:12:38.388Z,8.23
2019-05-06T00:15:10.520Z,8.93
2019-05-06T00:17:44.593Z,8.83
2019-05-06T00:20:18.654Z,8.67
2019-05-06T00:22:54.604Z,8.53
2019-05-06T00:25:37.755Z,9.17
2019-05-06T00:28:27.715Z,7.90
2019-05-06T00:31:12.850Z,8.47
2019-05-06T00:33:36.835Z,8.93
2019-05-06T00:36:10.017Z,8.97
2019-05-06T00:38:44.804Z,8.97
2019-05-06T00:41:36.569Z,8.33
2019-05-06T00:44:08.777Z,7.97
2019-05-06T00:46:41.119Z,8.17
2019-05-06T00:49:14.350Z,7.70
2019-05-06T00:51:47.518Z,7.57
2019-05-06T00:54:22.087Z,8.57
2019-05-06T00:56:54.231Z,7.93
2019-05-06T00:59:26.424Z,7.97
2019-05-06T01:01:58.586Z,7.60
2019-05-06T01:04:31.057Z,7.60
2019-05-06T01:07:03.892Z,7.47
2019-05-06T01:09:38.073Z,7.87
2019-05-06T01:12:10.314Z,8.27
2019-05-06T01:14:46.819Z,7.77
2019-05-06T01:17:19.303Z,7.83
2019-05-06T01:19:54.088Z,8.20
2019-05-06T01:22:26.242Z,8.00
2019-05-06T01:24:58.322Z,8.07
2019-05-06T01:27:30.789Z,8.80
2019-05-06T01:30:04.386Z,8.43
2019-05-06T01:32:36.594Z,8.20
2019-05-06T01:35:08.963Z,8.37
2019-05-06T01:37:44.115Z,7.57
2019-05-06T01:40:27.303Z,7.90
2019-05-06T01:43:04.203Z,7.57
2019-05-06T01:45:36.172Z,7.73
2019-05-06T01:48:08.161Z,7.90
2019-05-06T01:50:40.599Z,7.77
2019-05-06T01:53:14.021Z,7.40
2019-05-06T01:55:46.113Z,8.27
2019-05-06T01:58:18.139Z,8.20
2019-05-06T02:00:50.601Z,8.20
2019-05-06T02:03:24.228Z,8.03
2019-05-06T02:05:56.283Z,7.37
2019-05-06T02:08:28.246Z,7.17
2019-05-06T02:11:00.569Z,7.20
2019-05-06T02:13:34.817Z,7.57
2019-05-06T02:16:06.641Z,7.20
2019-05-06T02:18:38.603Z,7.27
2019-05-06T02:21:19.201Z,6.70
2019-05-06T02:23:56.703Z,5.90
2019-05-06T02:26:28.699Z,6.40
2019-05-06T02:29:04.300Z,5.67
2019-05-06T02:31:56.552Z,6.10
2019-05-06T02:34:48.592Z,5.70
2019-05-06T02:37:34.943Z,5.73
2019-05-06T02:40:25.021Z,6.37
2019-05-06T02:42:56.381Z,6.20
2019-05-06T02:45:28.398Z,5.37
2019-05-06T02:48:25.440Z,5.17
2019-05-06T02:51:16.238Z,5.10
2019-05-06T02:53:48.262Z,5.33
2019-05-06T02:56:20.170Z,5.00
2019-05-06T02:58:53.408Z,4.97
2019-05-06T03:01:25.906Z,4.80
2019-05-06T03:03:57.958Z,4.97
2019-05-06T03:06:33.719Z,4.53
2019-05-06T03:09:05.790Z,4.50
2019-05-06T03:11:37.939Z,4.53
2019-05-06T03:14:10.004Z,5.20
2019-05-06T03:16:43.904Z,4.80
2019-05-06T03:19:15.718Z,4.60
2019-05-06T03:22:15.331Z,5.33
2019-05-06T03:25:06.279Z,4.60
2019-05-06T03:27:36.376Z,4.63
2019-05-06T03:30:08.781Z,3.83
2019-05-06T03:33:21.255Z,4.20
2019-05-06T03:35:33.307Z,3.60
2019-05-06T03:37:49.027Z,3.30
2019-05-06T03:40:23.029Z,3.40
2019-05-06T03:42:54.968Z,3.87
2019-05-06T03:45:44.039Z,3.97
2019-05-06T03:48:28.953Z,3.77
2019-05-06T03:51:04.042Z,3.83
2019-05-06T03:53:37.237Z,3.83
2019-05-06T03:56:09.311Z,4.17
2019-05-06T03:58:43.495Z,3.67
2019-05-06T04:01:16.727Z,3.80
2019-05-06T04:03:53.693Z,3.77
2019-05-06T04:06:24.119Z,3.90
2019-05-06T04:08:56.963Z,4.27
2019-05-06T04:11:30.071Z,4.13
2019-05-06T04:14:02.970Z,4.33
2019-05-06T04:16:58.685Z,4.03
2019-05-06T04:19:37.103Z,4.27
2019-05-06T04:22:19.209Z,4.03
2019-05-06T04:25:07.217Z,3.97
2019-05-06T04:27:59.773Z,3.90
2019-05-06T04:30:33.400Z,3.20
2019-05-06T04:33:05.918Z,3.83
2019-05-06T04:35:37.892Z,3.40
2019-05-06T04:38:10.307Z,3.20
2019-05-06T04:40:43.976Z,3.90
2019-05-06T04:43:16.010Z,3.67
2019-05-06T04:45:48.156Z,3.17
2019-05-06T04:48:23.475Z,3.50
2019-05-06T04:50:55.096Z,3.90
2019-05-06T04:53:27.325Z,3.70
2019-05-06T04:55:59.352Z,3.60
2019-05-06T04:58:33.608Z,3.57
2019-05-06T05:01:04.988Z,3.53
2019-05-06T05:03:36.996Z,3.23
2019-05-06T05:06:08.974Z,3.60
2019-05-06T05:08:42.719Z,3.50
2019-05-06T05:11:29.995Z,3.33
2019-05-06T05:14:32.665Z,3.30
2019-05-06T05:17:12.836Z,3.90
2019-05-06T05:19:45.465Z,4.30
2019-05-06T05:22:18.001Z,4.53
2019-05-06T05:24:52.108Z,4.80
2019-05-06T05:27:23.891Z,4.30
2019-05-06T05:29:55.979Z,3.70
2019-05-06T05:32:28.126Z,3.73
2019-05-06T05:35:02.043Z,3.47
2019-05-06T05:37:33.906Z,3.23
2019-05-06T05:40:06.261Z,3.83
2019-05-06T05:42:52.114Z,3.63
2019-05-06T05:45:24.296Z,3.90
2019-05-06T05:47:58.385Z,3.10
2019-05-06T05:50:35.172Z,3.63
2019-05-06T05:53:07.305Z,4.10
2019-05-06T05:55:39.303Z,3.57
2019-05-06T05:58:12.986Z,3.57
2019-05-06T06:00:45.178Z,3.43
2019-05-06T06:03:17.554Z,3.70
2019-05-06T06:05:49.505Z,3.90
2019-05-06T06:08:24.690Z,4.07
2019-05-06T06:11:04.292Z,5.40
2019-05-06T06:13:36.598Z,3.83
2019-05-06T06:16:36.680Z,8.03
2019-05-06T06:19:33.795Z,4.80
2019-05-06T06:22:08.930Z,4.40
2019-05-06T06:24:42.795Z,4.17
2019-05-06T06:27:14.651Z,3.97
2019-05-06T06:29:46.689Z,3.83
2019-05-06T06:32:26.926Z,4.10
2019-05-06T06:35:18.962Z,4.77
2019-05-06T06:38:18.558Z,20.87
2019-05-06T06:40:55.361Z,11.40
2019-05-06T06:43:26.625Z,27.50
2019-05-06T06:45:58.638Z,39.60
2019-05-06T06:48:32.046Z,8.37
2019-05-06T06:51:04.325Z,13.47
2019-05-06T06:53:36.388Z,11.03
2019-05-06T06:56:26.388Z,15.90
2019-05-06T06:59:08.620Z,8.47
2019-05-06T07:02:02.740Z,5.73
2019-05-06T07:04:43.989Z,5.07
2019-05-06T07:07:17.189Z,23.33
2019-05-06T07:09:52.571Z,8.60
2019-05-06T07:12:24.456Z,8.80
2019-05-06T07:15:02.974Z,14.10
2019-05-06T07:17:34.944Z,13.60
2019-05-06T07:20:10.303Z,8.40
2019-05-06T07:22:42.513Z,7.20
2019-05-06T07:25:14.977Z,5.27
2019-05-06T07:27:47.089Z,4.60
2019-05-06T07:30:22.947Z,4.73
2019-05-06T07:32:55.995Z,4.00
2019-05-06T07:35:38.443Z,5.87
2019-05-06T07:38:02.942Z,5.50
2019-05-06T07:40:34.941Z,5.90
2019-05-06T07:43:25.775Z,4.37
2019-05-06T07:45:59.962Z,5.13
2019-05-06T07:48:33.183Z,5.50
2019-05-06T07:51:05.261Z,4.67
2019-05-06T07:53:37.219Z,5.30
2019-05-06T07:56:09.881Z,5.60
2019-05-06T07:58:43.524Z,17.70
2019-05-06T08:01:15.735Z,10.77
2019-05-06T08:03:47.947Z,17.20
2019-05-06T08:06:20.019Z,25.27
2019-05-06T08:08:53.708Z,10.87
2019-05-06T08:11:26.129Z,7.03
2019-05-06T08:13:59.068Z,5.40
2019-05-06T08:16:32.801Z,5.07
2019-05-06T08:19:04.793Z,7.13
2019-05-06T08:21:39.371Z,5.60
2019-05-06T08:24:12.052Z,5.57
2019-05-06T08:26:44.215Z,5.23
2019-05-06T08:29:16.388Z,5.97
2019-05-06T08:31:48.320Z,6.40
2019-05-06T08:34:22.629Z,9.17
2019-05-06T08:37:19.371Z,37.43
2019-05-06T08:39:53.490Z,34.70
2019-05-06T08:42:25.470Z,27.50
2019-05-06T08:44:57.838Z,24.47
2019-05-06T08:47:29.825Z,24.30
2019-05-06T08:50:13.335Z,30.93
2019-05-06T08:53:07.463Z,14.30
2019-05-06T08:55:42.090Z,16.65
2019-05-06T08:58:14.462Z,16.15
2019-05-06T09:00:57.072Z,11.10
2019-05-06T09:03:27.920Z,7.63
2019-05-06T09:06:03.006Z,7.23
2019-05-06T09:08:33.850Z,7.77
2019-05-06T09:11:05.827Z,6.40
2019-05-06T09:13:37.806Z,6.40
2019-05-06T09:16:09.881Z,5.83
2019-05-06T09:18:42.494Z,6.13
2019-05-06T09:21:14.846Z,6.40
2019-05-06T09:23:46.801Z,7.50
2019-05-06T09:26:22.432Z,5.77
2019-05-06T09:29:02.270Z,5.97
2019-05-06T09:31:42.888Z,5.10
2019-05-06T09:34:23.374Z,5.30
2019-05-06T09:37:14.629Z,5.13
2019-05-06T09:39:47.549Z,5.70
2019-05-06T09:42:22.817Z,5.67
2019-05-06T09:44:54.698Z,5.67
2019-05-06T09:47:55.032Z,5.00
2019-05-06T09:50:46.901Z,5.23
2019-05-06T09:53:28.058Z,5.30
2019-05-06T09:56:37.414Z,5.17
2019-05-06T09:59:09.467Z,5.27
2019-05-06T10:01:43.676Z,4.47
2019-05-06T10:04:15.202Z,5.93
2019-05-06T10:06:56.171Z,5.83
2019-05-06T10:09:24.656Z,5.23
2019-05-06T10:11:54.910Z,5.37
2019-05-06T10:14:26.873Z,6.57
2019-05-06T10:16:58.897Z,4.70
2019-05-06T10:19:32.126Z,4.90
2019-05-06T10:22:04.334Z,4.73
2019-05-06T10:24:36.355Z,4.00
2019-05-06T10:27:08.314Z,4.90
2019-05-06T10:29:48.871Z,4.70
2019-05-06T10:32:43.427Z,4.63
2019-05-06T10:35:16.055Z,5.50
2019-05-06T10:38:26.357Z,4.70
2019-05-06T10:41:07.131Z,4.60
2019-05-06T10:44:34.641Z,4.80
2019-05-06T10:47:06.710Z,4.00
2019-05-06T10:49:38.713Z,5.00
2019-05-06T10:52:21.996Z,4.53
2019-05-06T10:54:53.960Z,5.13
2019-05-06T10:57:33.781Z,4.60
2019-05-06T11:00:06.962Z,5.60
2019-05-06T11:02:59.267Z,4.23
2019-05-06T11:05:32.537Z,4.20
2019-05-06T11:08:04.731Z,4.10
2019-05-06T11:10:41.149Z,3.70
2019-05-06T11:13:12.829Z,4.67
2019-05-06T11:15:44.381Z,3.93
2019-05-06T11:18:16.366Z,3.90
2019-05-06T11:20:48.369Z,3.57
2019-05-06T11:23:21.904Z,4.60
2019-05-06T11:25:53.979Z,4.20
2019-05-06T11:28:48.015Z,3.90
2019-05-06T11:31:39.080Z,3.70
2019-05-06T11:34:45.182Z,4.60
2019-05-06T11:37:45.911Z,4.30
2019-05-06T11:40:09.220Z,5.07
2019-05-06T11:42:43.620Z,4.83
2019-05-06T11:45:15.695Z,5.63
2019-05-06T11:47:47.780Z,6.20
2019-05-06T11:50:21.991Z,7.57
2019-05-06T11:52:55.992Z,8.67
2019-05-06T11:55:32.739Z,6.77
2019-05-06T11:58:02.635Z,8.77
2019-05-06T12:00:40.369Z,5.20
2019-05-06T12:03:12.776Z,5.07
2019-05-06T12:05:45.049Z,4.80
2019-05-06T12:08:17.053Z,4.60
2019-05-06T12:10:49.079Z,4.13
2019-05-06T12:13:22.975Z,3.83
2019-05-06T12:15:54.916Z,4.90
2019-05-06T12:18:27.746Z,4.50
2019-05-06T12:21:09.043Z,4.90
2019-05-06T12:23:35.325Z,4.20
2019-05-06T12:26:07.227Z,5.00
2019-05-06T12:28:39.215Z,4.53
2019-05-06T12:31:12.652Z,5.23
2019-05-06T12:33:49.940Z,4.93
2019-05-06T12:36:22.940Z,4.53
2019-05-06T12:39:16.232Z,4.63
2019-05-06T12:42:12.091Z,4.70
2019-05-06T12:45:13.079Z,4.30
2019-05-06T12:47:57.451Z,4.37
2019-05-06T12:50:29.651Z,4.70
2019-05-06T12:53:03.085Z,6.97
2019-05-06T12:55:35.112Z,22.23
2019-05-06T12:58:07.150Z,6.10
2019-05-06T13:00:39.207Z,6.13
2019-05-06T13:03:12.666Z,7.17
2019-05-06T13:05:44.771Z,5.90
2019-05-06T13:08:20.409Z,5.33
2019-05-06T13:10:52.472Z,4.93
2019-05-06T13:13:24.150Z,5.30
2019-05-06T13:15:56.238Z,4.70
2019-05-06T13:18:28.406Z,4.67
2019-05-06T13:21:06.056Z,4.57
2019-05-06T13:23:49.138Z,5.17
2019-05-06T13:26:22.261Z,4.40
2019-05-06T13:28:59.854Z,5.97
2019-05-06T13:31:32.612Z,5.00
2019-05-06T13:34:08.345Z,4.70
2019-05-06T13:36:42.884Z,5.30
2019-05-06T13:39:15.464Z,3.97
2019-05-06T13:41:47.755Z,4.77
2019-05-06T13:44:22.777Z,4.90
2019-05-06T13:46:56.174Z,4.10
2019-05-06T13:49:43.120Z,3.90
2019-05-06T13:52:17.497Z,4.03
2019-05-06T13:54:52.824Z,4.17
2019-05-06T13:57:24.212Z,3.70
2019-05-06T13:59:56.234Z,3.90
2019-05-06T14:02:47.057Z,3.90
2019-05-06T14:05:20.729Z,4.10
2019-05-06T14:07:53.042Z,4.03
2019-05-06T14:10:25.094Z,3.53
2019-05-06T14:12:57.146Z,4.20
2019-05-06T14:15:29.244Z,4.37
2019-05-06T14:18:02.618Z,4.40
2019-05-06T14:20:34.993Z,4.10
2019-05-06T14:23:07.143Z,3.90
2019-05-06T14:26:16.298Z,4.20
2019-05-06T14:28:55.112Z,4.10
2019-05-06T14:31:39.614Z,4.40
2019-05-06T14:34:11.920Z,4.30
2019-05-06T14:36:45.277Z,4.60
2019-05-06T14:39:24.476Z,4.17
2019-05-06T14:41:57.188Z,4.57
2019-05-06T14:44:29.181Z,18.60
2019-05-06T14:47:14.593Z,10.83
2019-05-06T14:49:46.769Z,6.00
2019-05-06T14:52:18.729Z,8.00
2019-05-06T14:55:06.577Z,9.93
2019-05-06T14:57:38.687Z,11.17
2019-05-06T15:00:13.266Z,6.23
2019-05-06T15:02:45.267Z,5.83
2019-05-06T15:05:17.682Z,6.13
2019-05-06T15:07:52.681Z,6.17
2019-05-06T15:10:26.436Z,5.67
2019-05-06T15:12:57.859Z,7.90
2019-05-06T15:15:32.282Z,9.00
2019-05-06T15:18:03.830Z,11.07
2019-05-06T15:20:35.866Z,10.73
2019-05-06T15:23:07.842Z,16.43
2019-05-06T15:25:39.830Z,12.80
2019-05-06T15:28:13.035Z,10.80
2019-05-06T15:30:56.076Z,13.57
2019-05-06T15:33:32.935Z,9.97
2019-05-06T15:36:12.871Z,8.80
2019-05-06T15:38:44.991Z,9.27
2019-05-06T15:41:17.042Z,9.40
2019-05-06T15:43:49.017Z,9.37
2019-05-06T15:46:22.778Z,7.97
2019-05-06T15:48:55.015Z,7.90
2019-05-06T15:51:35.932Z,8.47
2019-05-06T15:54:08.460Z,7.20
2019-05-06T15:56:42.267Z,7.63
2019-05-06T15:59:14.149Z,9.27
2019-05-06T16:01:48.238Z,8.37
2019-05-06T16:04:22.714Z,7.97
2019-05-06T16:06:54.253Z,7.10
2019-05-06T16:09:26.270Z,7.13
2019-05-06T16:11:58.298Z,8.67
2019-05-06T16:14:34.539Z,8.97
2019-05-06T16:17:04.457Z,10.00
2019-05-06T16:19:36.457Z,8.53
2019-05-06T16:22:08.528Z,9.57
2019-05-06T16:25:04.452Z,12.33
2019-05-06T16:27:36.419Z,8.90
2019-05-06T16:30:13.045Z,8.40
2019-05-06T16:32:45.736Z,10.33
2019-05-06T16:35:17.938Z,13.27
2019-05-06T16:37:50.040Z,16.67
2019-05-06T16:40:23.099Z,18.33
2019-05-06T16:42:55.331Z,17.60
2019-05-06T16:45:27.314Z,10.37
2019-05-06T16:47:59.341Z,9.73
2019-05-06T16:50:32.992Z,9.40
2019-05-06T16:53:05.131Z,9.47
2019-05-06T16:55:57.213Z,10.03
2019-05-06T16:58:32.362Z,9.20
2019-05-06T17:01:05.046Z,8.10
2019-05-06T17:04:07.952Z,9.73
2019-05-06T17:06:40.178Z,8.60
2019-05-06T17:09:20.990Z,8.77
2019-05-06T17:11:47.039Z,9.03
2019-05-06T17:14:19.061Z,10.37
2019-05-06T17:16:52.718Z,8.77
2019-05-06T17:19:25.001Z,10.38
2019-05-06T17:21:57.050Z,10.93
2019-05-06T17:24:29.136Z,13.25
2019-05-06T17:27:02.719Z,19.27
2019-05-06T17:30:08.701Z,17.33
2019-05-06T17:32:47.185Z,12.93
2019-05-06T17:35:19.336Z,12.67
2019-05-06T17:38:10.238Z,12.90
2019-05-06T17:40:42.877Z,13.57
2019-05-06T17:43:15.108Z,14.67
2019-05-06T17:46:01.094Z,14.17
2019-05-06T17:48:31.708Z,13.30
2019-05-06T17:51:28.567Z,19.53
2019-05-06T17:54:01.824Z,20.40
2019-05-06T17:56:33.798Z,19.63
2019-05-06T17:59:05.864Z,15.07
2019-05-06T18:01:47.601Z,15.20
2019-05-06T18:04:19.609Z,17.27
2019-05-06T18:06:52.577Z,24.10
2019-05-06T18:09:24.869Z,16.73
2019-05-06T18:11:59.321Z,15.53
2019-05-06T18:14:33.142Z,16.43
2019-05-06T18:17:04.896Z,15.37
2019-05-06T18:19:36.901Z,14.43
2019-05-06T18:22:08.895Z,14.63
2019-05-06T18:24:41.637Z,14.40
2019-05-06T18:27:13.860Z,14.70
2019-05-06T18:29:45.890Z,16.30
2019-05-06T18:32:17.892Z,14.50
2019-05-06T18:34:50.164Z,13.57
2019-05-06T18:37:23.339Z,15.60
2019-05-06T18:39:55.602Z,15.80
2019-05-06T18:42:27.725Z,15.83
2019-05-06T18:45:02.583Z,13.93
2019-05-06T18:47:34.150Z,16.20
2019-05-06T18:50:06.991Z,13.90
2019-05-06T18:52:39.003Z,14.60
2019-05-06T18:55:14.043Z,14.40
2019-05-06T18:57:46.121Z,22.07
2019-05-06T19:00:18.672Z,17.33
2019-05-06T19:02:52.198Z,13.27
2019-05-06T19:05:33.044Z,13.47
2019-05-06T19:08:12.422Z,13.93
2019-05-06T19:10:44.301Z,13.40
2019-05-06T19:13:16.326Z,17.40
2019-05-06T19:15:48.344Z,18.77
2019-05-06T19:18:22.435Z,15.50
2019-05-06T19:20:54.837Z,17.63
2019-05-06T19:23:26.923Z,17.70
2019-05-06T19:25:58.921Z,19.80
2019-05-06T19:28:32.790Z,21.47
2019-05-06T19:31:04.953Z,17.03
2019-05-06T19:33:37.022Z,18.47
2019-05-06T19:36:09.005Z,15.67
2019-05-06T19:38:42.706Z,17.70
2019-05-06T19:41:14.741Z,20.50
2019-05-06T19:43:46.775Z,18.03
2019-05-06T19:46:18.794Z,15.57
2019-05-06T19:48:52.420Z,18.70
2019-05-06T19:51:24.609Z,15.57
2019-05-06T19:53:56.621Z,14.50
2019-05-06T19:56:28.701Z,14.93
2019-05-06T19:59:02.100Z,13.93
2019-05-06T20:01:34.291Z,16.17
2019-05-06T20:04:06.277Z,16.10
2019-05-06T20:06:47.111Z,17.97
2019-05-06T20:09:38.268Z,17.80
2019-05-06T20:12:16.073Z,16.47
2019-05-06T20:14:48.151Z,15.00
2019-05-06T20:17:22.312Z,15.10
2019-05-06T20:19:54.240Z,13.97
2019-05-06T20:22:26.242Z,13.70
2019-05-06T20:24:58.301Z,12.27
2019-05-06T20:27:32.331Z,13.20
2019-05-06T20:30:04.160Z,13.13
2019-05-06T20:32:36.138Z,12.87
2019-05-06T20:35:08.912Z,13.27
2019-05-06T20:37:42.556Z,13.10
2019-05-06T20:40:15.075Z,15.17
2019-05-06T20:42:47.110Z,13.53
2019-05-06T20:45:19.084Z,13.20
2019-05-06T20:47:52.511Z,13.90
2019-05-06T20:50:24.568Z,22.23
2019-05-06T20:52:56.587Z,15.23
2019-05-06T20:55:28.580Z,14.03
2019-05-06T20:58:02.642Z,14.63
2019-05-06T21:00:34.391Z,14.17
2019-05-06T21:03:06.564Z,13.67
2019-05-06T21:05:40.345Z,11.77
2019-05-06T21:08:13.000Z,12.40
2019-05-06T21:10:45.723Z,11.33
2019-05-06T21:13:29.436Z,11.57
2019-05-06T21:15:51.674Z,12.57
2019-05-06T21:18:23.624Z,11.97
2019-05-06T21:20:55.627Z,13.27
2019-05-06T21:23:27.761Z,12.27
2019-05-06T21:26:00.349Z,11.70
2019-05-06T21:28:32.298Z,10.47
2019-05-06T21:31:04.294Z,11.60
2019-05-06T21:33:36.361Z,10.80
2019-05-06T21:36:08.447Z,9.97
2019-05-06T21:38:42.587Z,10.13
2019-05-06T21:41:17.468Z,9.97
2019-05-06T21:43:50.155Z,10.30
2019-05-06T21:46:21.732Z,9.37
2019-05-06T21:48:53.751Z,10.00
2019-05-06T21:51:25.795Z,8.77
2019-05-06T21:53:57.896Z,9.13
2019-05-06T21:56:32.021Z,11.20
2019-05-06T21:59:04.183Z,9.30
2019-05-06T22:01:37.436Z,10.13
2019-05-06T22:04:09.626Z,9.07
2019-05-06T22:06:42.839Z,9.67
2019-05-06T22:09:15.607Z,9.67
2019-05-06T22:11:47.557Z,9.20
2019-05-06T22:14:19.996Z,8.70
2019-05-06T22:16:52.097Z,10.00
2019-05-06T22:19:24.041Z,10.23
2019-05-06T22:22:14.872Z,10.20
2019-05-06T22:24:48.244Z,11.73
2019-05-06T22:27:21.986Z,9.17
2019-05-06T22:29:54.155Z,9.87
2019-05-06T22:32:26.109Z,10.37
2019-05-06T22:34:58.053Z,9.90
2019-05-06T22:37:30.402Z,10.90
2019-05-06T22:40:02.418Z,10.03
2019-05-06T22:42:34.378Z,10.53
2019-05-06T22:45:06.851Z,11.50
2019-05-06T22:47:38.854Z,10.33
2019-05-06T22:50:13.051Z,11.13
2019-05-06T22:52:45.348Z,10.83
2019-05-06T22:55:17.437Z,10.63
2019-05-06T22:57:49.555Z,10.37
2019-05-06T23:00:26.989Z,10.67
2019-05-06T23:03:03.427Z,11.17
2019-05-06T23:05:35.337Z,11.00
2019-05-06T23:08:07.355Z,11.67
2019-05-06T23:10:39.318Z,12.67
2019-05-06T23:13:12.424Z,13.37
2019-05-06T23:15:44.690Z,12.37
2019-05-06T23:18:16.688Z,10.30
2019-05-06T23:20:48.690Z,10.13
2019-05-06T23:23:22.278Z,10.17
2019-05-06T23:26:13.025Z,10.73
2019-05-06T23:28:45.210Z,9.97
2019-05-06T23:31:17.824Z,10.20
2019-05-06T23:33:50.435Z,10.90
2019-05-06T23:36:22.885Z,9.33
2019-05-06T23:39:59.610Z,9.87
2019-05-06T23:43:25.184Z,10.23
2019-05-06T23:46:52.766Z,9.33
2019-05-06T23:50:18.153Z,8.30
2019-05-06T23:53:43.708Z,9.10
2019-05-06T23:56:44.782Z,8.10
2019-05-06T23:59:18.157Z,8.40
